Montrose, CO

5:37 AM MST on December 26, 2014 (GMT -0700)
Spring Creek | Change Station
CLOSE
Current Station
Personal Weather Station
Location: Montrose, CO
Elevation: 6020 ft
Nearby Weather Stations
Active Advisory: Winter Weather Advisory Active Notice: Local Storm Report

Elev 6020 ft 38.44 °N, 107.90 °W | Updated 2 minutes ago

Overcast
Overcast
22.6 °F
Feels Like 17 °F
N
4.0
Wind Variable Wind from NW
Gusts 5.0 mph

Today
High -- | Low -- °F
--% Chance of Precip.
Yesterday
High -- | Low -- °F
Precip. -- in
7:27 AM 4:57 PM
Waxing Crescent, 25% visible
Pressure 29.74 in
Visibility 8.0 miles
Clouds Mostly Cloudy 600 ft
Overcast 1000 ft
Windchill 17 °F
Dew Point 21 °F
Humidity 94%
Rainfall 0.00 in
Snow Depth Not available.
UV 0 out of 12
Pollen .10 out of 12
Air Quality Not available.
Flu Activity Not available.
SPECI KMTJ 261216Z AUTO 34005KT 8SM BKN006 OVC010 M04/M06 A2974 RMK AO2 T10441056

More Conditions Fewer Conditions

Pressure 29.74 in
Visibility 8.0 miles
Clouds Mostly Cloudy 600 ft
Overcast 1000 ft
Windchill 17 °F
Dew Point 21 °F
Humidity 94%
Rainfall 0.00 in
Snow Depth Not available.
UV 0 out of 12
Pollen .10 out of 12
Air Quality Not available.
Flu Activity Not available.
SPECI KMTJ 261216Z AUTO 34005KT 8SM BKN006 OVC010 M04/M06 A2974 RMK AO2 T10441056

More Conditions Fewer Conditions

10-Day Weather Forecast

Almanac

Astronomy

Dec. 26, 2014 Rise Set
Actual Time
Civil Twilight
Nautical Twilight
Astronomical Twilight
Moon
Length of Visible Light
Length of Day
Tomorrow will be .
, % of the Moon is Illuminated

Today's Extremes

State Highs State Lows

Community

WunderPhotos

Upload Photos

1,780,586 photos uploaded!

WunderBlogs® & News

Nearby

Air Quality

  Air Quality AQ Index Pollutant
Not available.

Snow Depth

Station Depth Elevation

Earthquake Activity

City Distance Mag. Time & Date
Minimum magnitude displayed is 2.5.

Coastal Water Temperatures

Place Temperature

Nearby Weather Stations